sensor_id;sensor_type;location;lat;lon;timestamp;pressure;altitude;pressure_sealevel;temperature;humidity
21276;BME280;36472;52.170;20.884;2022-11-15T00:01:00;100909.31;;;5.76;100.00
21276;BME280;36472;52.170;20.884;2022-11-15T00:03:51;100921.09;;;5.86;100.00
21276;BME280;36472;52.170;20.884;2022-11-15T00:06:39;100922.28;;;5.77;100.00
21276;BME280;36472;52.170;20.884;2022-11-15T00:09:26;100916.19;;;5.77;100.00
21276;BME280;36472;52.170;20.884;2022-11-15T00:12:14;100912.41;;;5.86;100.00
21276;BME280;36472;52.170;20.884;2022-11-15T00:15:01;100908.78;;;5.90;100.00
21276;BME280;36472;52.170;20.884;2022-11-15T00:17:49;100895.00;;;5.86;100.00
21276;BME280;36472;52.170;20.884;2022-11-15T00:20:37;100898.72;;;5.79;100.00
21276;BME280;36472;52.170;20.884;2022-11-15T00:23:26;100888.88;;;5.63;100.00
21276;BME280;36472;52.170;20.884;2022-11-15T00:26:14;100890.38;;;5.71;100.00
21276;BME280;36472;52.170;20.884;2022-11-15T00:29:02;100880.88;;;5.68;100.00
21276;BME280;36472;52.170;20.884;2022-11-15T00:31:49;100880.47;;;5.79;100.00
21276;BME280;36472;52.170;20.884;2022-11-15T00:34:37;100883.16;;;5.77;100.00
21276;BME280;36472;52.170;20.884;2022-11-15T00:37:24;100877.28;;;5.72;100.00
21276;BME280;36472;52.170;20.884;2022-11-15T00:40:13;100867.06;;;5.66;100.00
21276;BME280;36472;52.170;20.884;2022-11-15T00:42:59;100845.41;;;5.64;100.00
21276;BME280;36472;52.170;20.884;2022-11-15T00:45:47;100854.28;;;5.82;100.00
21276;BME280;36472;52.170;20.884;2022-11-15T00:48:34;100847.19;;;5.86;100.00
21276;BME280;36472;52.170;20.884;2022-11-15T00:51:22;100857.38;;;5.92;100.00
21276;BME280;36472;52.170;20.884;2022-11-15T00:54:09;100847.22;;;5.84;100.00
21276;BME280;36472;52.170;20.884;2022-11-15T00:56:58;100848.00;;;5.88;100.00
21276;BME280;36472;52.170;20.884;2022-11-15T00:59:44;100836.75;;;5.86;100.00
21276;BME280;36472;52.170;20.884;2022-11-15T01:02:32;100827.84;;;5.91;100.00
21276;BME280;36472;52.170;20.884;2022-11-15T01:05:20;100825.03;;;5.74;100.00
21276;BME280;36472;52.170;20.884;2022-11-15T01:08:12;100811.03;;;5.76;100.00
21276;BME280;36472;52.170;20.884;2022-11-15T01:11:04;100815.16;;;5.82;100.00
21276;BME280;36472;52.170;20.884;2022-11-15T01:13:54;100810.91;;;5.79;100.00
21276;BME280;36472;52.170;20.884;2022-11-15T01:16:42;100798.47;;;5.64;100.00
21276;BME280;36472;52.170;20.884;2022-11-15T01:19:29;100794.03;;;5.66;100.00
21276;BME280;36472;52.170;20.884;2022-11-15T01:22:16;100791.44;;;5.66;100.00
21276;BME280;36472;52.170;20.884;2022-11-15T01:25:04;100804.34;;;5.69;100.00
21276;BME280;36472;52.170;20.884;2022-11-15T01:27:51;100823.75;;;5.84;100.00
21276;BME280;36472;52.170;20.884;2022-11-15T01:30:40;100804.25;;;5.72;100.00
21276;BME280;36472;52.170;20.884;2022-11-15T01:33:27;100802.75;;;5.65;100.00
21276;BME280;36472;52.170;20.884;2022-11-15T01:36:21;100796.88;;;5.60;100.00
21276;BME280;36472;52.170;20.884;2022-11-15T01:39:09;100798.16;;;5.72;100.00
21276;BME280;36472;52.170;20.884;2022-11-15T01:41:56;100796.66;;;5.66;100.00
21276;BME280;36472;52.170;20.884;2022-11-15T01:44:47;100799.66;;;5.55;100.00
21276;BME280;36472;52.170;20.884;2022-11-15T01:47:41;100790.44;;;5.69;100.00
21276;BME280;36472;52.170;20.884;2022-11-15T01:50:31;100780.75;;;5.50;100.00
21276;BME280;36472;52.170;20.884;2022-11-15T01:53:23;100784.34;;;5.70;100.00
21276;BME280;36472;52.170;20.884;2022-11-15T01:56:15;100776.34;;;5.74;100.00
21276;BME280;36472;52.170;20.884;2022-11-15T01:59:08;100766.19;;;5.67;100.00
21276;BME280;36472;52.170;20.884;2022-11-15T02:01:55;100771.31;;;5.46;100.00
21276;BME280;36472;52.170;20.884;2022-11-15T02:04:46;100762.50;;;5.50;100.00
21276;BME280;36472;52.170;20.884;2022-11-15T02:07:36;100760.41;;;5.58;100.00
21276;BME280;36472;52.170;20.884;2022-11-15T02:10:24;100751.88;;;5.55;100.00
21276;BME280;36472;52.170;20.884;2022-11-15T02:13:12;100756.13;;;5.57;100.00
21276;BME280;36472;52.170;20.884;2022-11-15T02:16:07;100750.97;;;5.56;100.00
21276;BME280;36472;52.170;20.884;2022-11-15T02:19:02;100742.78;;;5.65;100.00
21276;BME280;36472;52.170;20.884;2022-11-15T02:22:10;100743.38;;;5.50;100.00
21276;BME280;36472;52.170;20.884;2022-11-15T02:25:15;100753.44;;;5.37;100.00
21276;BME280;36472;52.170;20.884;2022-11-15T02:28:41;100747.19;;;5.41;100.00
21276;BME280;36472;52.170;20.884;2022-11-15T02:31:41;100743.69;;;5.42;100.00
21276;BME280;36472;52.170;20.884;2022-11-15T02:34:44;100733.09;;;5.47;100.00
21276;BME280;36472;52.170;20.884;2022-11-15T02:37:43;100734.22;;;5.39;100.00
21276;BME280;36472;52.170;20.884;2022-11-15T02:40:42;100730.41;;;5.48;100.00
21276;BME280;36472;52.170;20.884;2022-11-15T02:43:39;100735.09;;;5.40;100.00
21276;BME280;36472;52.170;20.884;2022-11-15T02:46:52;100723.78;;;5.39;100.00
21276;BME280;36472;52.170;20.884;2022-11-15T02:50:03;100725.56;;;5.39;100.00
21276;BME280;36472;52.170;20.884;2022-11-15T02:52:55;100725.50;;;5.40;100.00
21276;BME280;36472;52.170;20.884;2022-11-15T02:55:48;100721.00;;;5.44;100.00
21276;BME280;36472;52.170;20.884;2022-11-15T02:59:04;100711.75;;;5.37;100.00
21276;BME280;36472;52.170;20.884;2022-11-15T03:02:18;100702.53;;;5.50;100.00
21276;BME280;36472;52.170;20.884;2022-11-15T03:05:19;100698.09;;;5.52;100.00
21276;BME280;36472;52.170;20.884;2022-11-15T03:08:15;100692.63;;;5.58;100.00
21276;BME280;36472;52.170;20.884;2022-11-15T03:11:11;100694.44;;;5.56;100.00
21276;BME280;36472;52.170;20.884;2022-11-15T03:14:06;100682.41;;;5.54;100.00
21276;BME280;36472;52.170;20.884;2022-11-15T03:17:03;100676.97;;;5.58;100.00
21276;BME280;36472;52.170;20.884;2022-11-15T03:19:56;100676.09;;;5.59;100.00
21276;BME280;36472;52.170;20.884;2022-11-15T03:22:47;100680.13;;;5.67;100.00
21276;BME280;36472;52.170;20.884;2022-11-15T03:25:41;100682.69;;;5.68;100.00
21276;BME280;36472;52.170;20.884;2022-11-15T03:28:37;100678.56;;;5.62;100.00
21276;BME280;36472;52.170;20.884;2022-11-15T03:31:30;100675.97;;;5.62;100.00
21276;BME280;36472;52.170;20.884;2022-11-15T03:39:28;100667.59;;;5.54;100.00
21276;BME280;36472;52.170;20.884;2022-11-15T03:42:24;100655.47;;;5.53;100.00
21276;BME280;36472;52.170;20.884;2022-11-15T03:45:19;100655.56;;;5.52;100.00
21276;BME280;36472;52.170;20.884;2022-11-15T03:48:13;100652.28;;;5.47;100.00
21276;BME280;36472;52.170;20.884;2022-11-15T03:51:03;100640.63;;;5.55;100.00
21276;BME280;36472;52.170;20.884;2022-11-15T03:53:51;100640.25;;;5.65;100.00
21276;BME280;36472;52.170;20.884;2022-11-15T03:56:40;100643.28;;;5.54;100.00
21276;BME280;36472;52.170;20.884;2022-11-15T03:59:27;100638.75;;;5.59;100.00
21276;BME280;36472;52.170;20.884;2022-11-15T04:02:15;100629.59;;;5.49;100.00
21276;BME280;36472;52.170;20.884;2022-11-15T04:05:03;100630.16;;;5.57;100.00
21276;BME280;36472;52.170;20.884;2022-11-15T04:07:50;100627.38;;;5.60;100.00
21276;BME280;36472;52.170;20.884;2022-11-15T04:10:37;100630.91;;;5.59;100.00
21276;BME280;36472;52.170;20.884;2022-11-15T04:13:26;100617.88;;;5.59;100.00
21276;BME280;36472;52.170;20.884;2022-11-15T04:16:14;100618.19;;;5.51;100.00
21276;BME280;36472;52.170;20.884;2022-11-15T04:19:01;100618.84;;;5.56;100.00
21276;BME280;36472;52.170;20.884;2022-11-15T04:26:34;100611.09;;;5.33;100.00
21276;BME280;36472;52.170;20.884;2022-11-15T04:29:22;100613.34;;;5.42;100.00
21276;BME280;36472;52.170;20.884;2022-11-15T04:32:21;100617.28;;;5.52;100.00
21276;BME280;36472;52.170;20.884;2022-11-15T04:35:09;100612.84;;;5.54;100.00
21276;BME280;36472;52.170;20.884;2022-11-15T04:37:58;100614.41;;;5.58;100.00
21276;BME280;36472;52.170;20.884;2022-11-15T04:40:46;100610.56;;;5.47;100.00
21276;BME280;36472;52.170;20.884;2022-11-15T04:43:33;100613.25;;;5.45;100.00
21276;BME280;36472;52.170;20.884;2022-11-15T04:46:22;100607.72;;;5.31;100.00
21276;BME280;36472;52.170;20.884;2022-11-15T04:49:10;100609.06;;;5.61;100.00
21276;BME280;36472;52.170;20.884;2022-11-15T04:51:58;100611.94;;;6.18;100.00
21276;BME280;36472;52.170;20.884;2022-11-15T04:59:35;100605.81;;;5.56;100.00
21276;BME280;36472;52.170;20.884;2022-11-15T05:02:24;100608.34;;;5.58;100.00
21276;BME280;36472;52.170;20.884;2022-11-15T05:05:31;100597.09;;;5.57;100.00
21276;BME280;36472;52.170;20.884;2022-11-15T05:08:17;100603.59;;;5.47;100.00
21276;BME280;36472;52.170;20.884;2022-11-15T05:11:05;100604.59;;;5.43;100.00
21276;BME280;36472;52.170;20.884;2022-11-15T05:13:53;100594.19;;;5.43;100.00
21276;BME280;36472;52.170;20.884;2022-11-15T05:16:41;100595.84;;;5.46;100.00
21276;BME280;36472;52.170;20.884;2022-11-15T05:19:30;100592.00;;;5.54;100.00
21276;BME280;36472;52.170;20.884;2022-11-15T05:22:17;100596.41;;;5.95;100.00
21276;BME280;36472;52.170;20.884;2022-11-15T05:25:06;100592.84;;;5.75;100.00
21276;BME280;36472;52.170;20.884;2022-11-15T05:27:54;100596.81;;;5.63;100.00
21276;BME280;36472;52.170;20.884;2022-11-15T05:30:42;100584.31;;;5.29;100.00
21276;BME280;36472;52.170;20.884;2022-11-15T05:33:30;100594.44;;;5.37;100.00
21276;BME280;36472;52.170;20.884;2022-11-15T05:36:28;100594.50;;;5.35;100.00
21276;BME280;36472;52.170;20.884;2022-11-15T05:39:16;100589.34;;;5.34;100.00
21276;BME280;36472;52.170;20.884;2022-11-15T05:42:09;100589.06;;;5.19;100.00
21276;BME280;36472;52.170;20.884;2022-11-15T05:49:30;100579.13;;;5.07;100.00
21276;BME280;36472;52.170;20.884;2022-11-15T05:52:24;100577.31;;;5.09;100.00
21276;BME280;36472;52.170;20.884;2022-11-15T05:55:13;100575.44;;;5.13;100.00
21276;BME280;36472;52.170;20.884;2022-11-15T05:58:01;100573.63;;;5.15;100.00
21276;BME280;36472;52.170;20.884;2022-11-15T06:00:48;100578.72;;;5.18;100.00
21276;BME280;36472;52.170;20.884;2022-11-15T06:03:36;100578.66;;;5.19;100.00
21276;BME280;36472;52.170;20.884;2022-11-15T06:06:22;100584.63;;;5.21;100.00
21276;BME280;36472;52.170;20.884;2022-11-15T06:09:11;100581.16;;;5.21;100.00
21276;BME280;36472;52.170;20.884;2022-11-15T06:16:49;100592.69;;;5.15;100.00
21276;BME280;36472;52.170;20.884;2022-11-15T06:19:36;100581.88;;;5.04;100.00
21276;BME280;36472;52.170;20.884;2022-11-15T06:22:23;100584.09;;;5.13;100.00
21276;BME280;36472;52.170;20.884;2022-11-15T06:25:12;100586.09;;;5.06;100.00
21276;BME280;36472;52.170;20.884;2022-11-15T06:28:00;100588.75;;;5.05;100.00
21276;BME280;36472;52.170;20.884;2022-11-15T06:30:46;100588.63;;;5.08;100.00
21276;BME280;36472;52.170;20.884;2022-11-15T06:33:38;100592.75;;;4.92;100.00
21276;BME280;36472;52.170;20.884;2022-11-15T06:36:25;100598.97;;;4.87;100.00
21276;BME280;36472;52.170;20.884;2022-11-15T06:39:13;100601.72;;;5.06;100.00
21276;BME280;36472;52.170;20.884;2022-11-15T06:42:01;100593.25;;;5.01;100.00
21276;BME280;36472;52.170;20.884;2022-11-15T06:44:49;100592.03;;;5.10;100.00
21276;BME280;36472;52.170;20.884;2022-11-15T06:47:44;100596.22;;;5.99;100.00
21276;BME280;36472;52.170;20.884;2022-11-15T06:50:32;100589.91;;;5.42;100.00
21276;BME280;36472;52.170;20.884;2022-11-15T06:53:19;100593.28;;;5.22;100.00
21276;BME280;36472;52.170;20.884;2022-11-15T06:56:07;100541.25;;;4.98;100.00
21276;BME280;36472;52.170;20.884;2022-11-15T06:58:56;100591.75;;;5.18;100.00
21276;BME280;36472;52.170;20.884;2022-11-15T07:01:44;100593.28;;;5.22;100.00
21276;BME280;36472;52.170;20.884;2022-11-15T07:04:31;100600.09;;;5.26;100.00
21276;BME280;36472;52.170;20.884;2022-11-15T07:07:19;100594.75;;;5.07;100.00
21276;BME280;36472;52.170;20.884;2022-11-15T07:10:08;100597.97;;;5.14;100.00
21276;BME280;36472;52.170;20.884;2022-11-15T07:12:56;100603.13;;;5.15;100.00
21276;BME280;36472;52.170;20.884;2022-11-15T07:15:45;100594.94;;;5.24;100.00
21276;BME280;36472;52.170;20.884;2022-11-15T07:18:34;100598.22;;;5.30;100.00
21276;BME280;36472;52.170;20.884;2022-11-15T07:21:21;100586.81;;;5.10;100.00
21276;BME280;36472;52.170;20.884;2022-11-15T07:24:13;100602.97;;;5.62;100.00
21276;BME280;36472;52.170;20.884;2022-11-15T07:27:00;100606.25;;;6.29;100.00
21276;BME280;36472;52.170;20.884;2022-11-15T07:29:47;100607.31;;;6.25;100.00
21276;BME280;36472;52.170;20.884;2022-11-15T07:32:36;100599.63;;;5.59;100.00
21276;BME280;36472;52.170;20.884;2022-11-15T07:35:25;100599.84;;;6.55;100.00
21276;BME280;36472;52.170;20.884;2022-11-15T07:38:12;100604.00;;;5.79;100.00
21276;BME280;36472;52.170;20.884;2022-11-15T07:45:50;100602.09;;;6.05;100.00
21276;BME280;36472;52.170;20.884;2022-11-15T07:48:45;100590.75;;;5.63;100.00
21276;BME280;36472;52.170;20.884;2022-11-15T07:51:32;100586.84;;;5.53;100.00
21276;BME280;36472;52.170;20.884;2022-11-15T07:59:11;100584.84;;;5.59;100.00
21276;BME280;36472;52.170;20.884;2022-11-15T08:01:58;100567.41;;;5.60;100.00
21276;BME280;36472;52.170;20.884;2022-11-15T08:04:47;100565.03;;;5.55;100.00
21276;BME280;36472;52.170;20.884;2022-11-15T08:07:35;100561.50;;;5.56;100.00
21276;BME280;36472;52.170;20.884;2022-11-15T08:10:24;100549.75;;;5.67;100.00
21276;BME280;36472;52.170;20.884;2022-11-15T08:13:13;100547.94;;;5.69;100.00
21276;BME280;36472;52.170;20.884;2022-11-15T08:16:02;100550.47;;;5.70;100.00
21276;BME280;36472;52.170;20.884;2022-11-15T08:18:51;100553.13;;;6.30;100.00
21276;BME280;36472;52.170;20.884;2022-11-15T08:21:40;100549.13;;;6.61;100.00
21276;BME280;36472;52.170;20.884;2022-11-15T08:24:27;100558.22;;;6.13;100.00
21276;BME280;36472;52.170;20.884;2022-11-15T08:27:15;100553.34;;;5.85;100.00
21276;BME280;36472;52.170;20.884;2022-11-15T08:30:03;100543.22;;;5.77;100.00
21276;BME280;36472;52.170;20.884;2022-11-15T08:32:52;100538.00;;;6.18;100.00
21276;BME280;36472;52.170;20.884;2022-11-15T08:35:41;100537.25;;;6.54;100.00
21276;BME280;36472;52.170;20.884;2022-11-15T08:38:29;100538.25;;;6.32;100.00
21276;BME280;36472;52.170;20.884;2022-11-15T08:41:25;100523.22;;;6.57;100.00
21276;BME280;36472;52.170;20.884;2022-11-15T08:44:13;100537.59;;;6.27;100.00
21276;BME280;36472;52.170;20.884;2022-11-15T08:47:01;100536.59;;;6.11;100.00
21276;BME280;36472;52.170;20.884;2022-11-15T08:49:48;100537.41;;;6.51;100.00
21276;BME280;36472;52.170;20.884;2022-11-15T08:52:35;100544.19;;;7.63;98.82
21276;BME280;36472;52.170;20.884;2022-11-15T08:55:24;100538.09;;;6.54;100.00
21276;BME280;36472;52.170;20.884;2022-11-15T08:58:11;100541.94;;;6.27;100.00
21276;BME280;36472;52.170;20.884;2022-11-15T09:00:59;100531.72;;;6.03;100.00
21276;BME280;36472;52.170;20.884;2022-11-15T09:08:39;100514.94;;;6.66;100.00
21276;BME280;36472;52.170;20.884;2022-11-15T09:11:38;100500.50;;;7.47;100.00
21276;BME280;36472;52.170;20.884;2022-11-15T09:14:26;100513.63;;;6.38;100.00
21276;BME280;36472;52.170;20.884;2022-11-15T09:17:13;100503.22;;;6.55;100.00
21276;BME280;36472;52.170;20.884;2022-11-15T09:20:08;100497.22;;;6.53;100.00
21276;BME280;36472;52.170;20.884;2022-11-15T09:22:59;100495.06;;;7.52;96.41
21276;BME280;36472;52.170;20.884;2022-11-15T09:25:47;100508.31;;;6.59;100.00
21276;BME280;36472;52.170;20.884;2022-11-15T09:28:37;100503.94;;;6.21;100.00
21276;BME280;36472;52.170;20.884;2022-11-15T09:31:28;100502.63;;;6.87;100.00
21276;BME280;36472;52.170;20.884;2022-11-15T09:34:16;100501.00;;;6.84;100.00
21276;BME280;36472;52.170;20.884;2022-11-15T09:37:03;100492.91;;;6.71;99.07
21276;BME280;36472;52.170;20.884;2022-11-15T09:39:50;100486.03;;;6.32;100.00
21276;BME280;36472;52.170;20.884;2022-11-15T09:42:55;100490.41;;;6.51;100.00
21276;BME280;36472;52.170;20.884;2022-11-15T09:46:05;100489.81;;;6.63;100.00
21276;BME280;36472;52.170;20.884;2022-11-15T09:48:55;100481.22;;;6.42;100.00
21276;BME280;36472;52.170;20.884;2022-11-15T09:51:41;100477.25;;;6.71;100.00
21276;BME280;36472;52.170;20.884;2022-11-15T09:54:28;100474.66;;;6.33;100.00
21276;BME280;36472;52.170;20.884;2022-11-15T09:57:21;100467.75;;;6.32;100.00
21276;BME280;36472;52.170;20.884;2022-11-15T10:00:04;100456.69;;;6.27;100.00
21276;BME280;36472;52.170;20.884;2022-11-15T10:03:10;100462.22;;;7.46;97.90
21276;BME280;36472;52.170;20.884;2022-11-15T10:05:43;100458.53;;;7.16;99.33
21276;BME280;36472;52.170;20.884;2022-11-15T10:08:37;100457.38;;;6.50;100.00
21276;BME280;36472;52.170;20.884;2022-11-15T10:11:11;100447.91;;;6.47;100.00
21276;BME280;36472;52.170;20.884;2022-11-15T10:14:10;100445.63;;;6.59;100.00
21276;BME280;36472;52.170;20.884;2022-11-15T10:17:29;100448.94;;;6.62;100.00
21276;BME280;36472;52.170;20.884;2022-11-15T10:20:13;100435.00;;;6.81;100.00
21276;BME280;36472;52.170;20.884;2022-11-15T10:22:48;100446.63;;;7.10;100.00
21276;BME280;36472;52.170;20.884;2022-11-15T10:25:22;100438.63;;;6.78;100.00
21276;BME280;36472;52.170;20.884;2022-11-15T10:27:58;100448.13;;;6.79;100.00
21276;BME280;36472;52.170;20.884;2022-11-15T10:30:35;100441.94;;;6.82;100.00
21276;BME280;36472;52.170;20.884;2022-11-15T10:33:19;100435.28;;;7.62;96.22
21276;BME280;36472;52.170;20.884;2022-11-15T10:36:16;100427.16;;;8.32;95.34
21276;BME280;36472;52.170;20.884;2022-11-15T10:38:57;100428.84;;;9.25;86.94
21276;BME280;36472;52.170;20.884;2022-11-15T10:41:37;100430.06;;;7.62;97.27
21276;BME280;36472;52.170;20.884;2022-11-15T10:44:23;100428.69;;;7.37;99.54
21276;BME280;36472;52.170;20.884;2022-11-15T10:47:27;100421.06;;;7.33;100.00
21276;BME280;36472;52.170;20.884;2022-11-15T10:50:26;100398.53;;;7.47;96.25
21276;BME280;36472;52.170;20.884;2022-11-15T10:52:58;100419.84;;;7.40;100.00
21276;BME280;36472;52.170;20.884;2022-11-15T10:55:31;100411.44;;;8.32;95.05
21276;BME280;36472;52.170;20.884;2022-11-15T10:58:05;100409.41;;;9.72;84.31
21276;BME280;36472;52.170;20.884;2022-11-15T11:00:37;100402.28;;;9.89;82.04
21276;BME280;36472;52.170;20.884;2022-11-15T11:03:28;100405.28;;;8.33;89.39
21276;BME280;36472;52.170;20.884;2022-11-15T11:06:07;100405.63;;;7.45;97.88
21276;BME280;36472;52.170;20.884;2022-11-15T11:13:21;100407.13;;;7.83;94.46
21276;BME280;36472;52.170;20.884;2022-11-15T11:16:05;100403.63;;;7.33;98.75
21276;BME280;36472;52.170;20.884;2022-11-15T11:18:49;100405.88;;;7.23;100.00
21276;BME280;36472;52.170;20.884;2022-11-15T11:21:33;100408.03;;;9.08;92.10
21276;BME280;36472;52.170;20.884;2022-11-15T11:24:18;100405.94;;;8.36;91.84
21276;BME280;36472;52.170;20.884;2022-11-15T11:27:13;100406.50;;;9.63;84.63
21276;BME280;36472;52.170;20.884;2022-11-15T11:30:03;100396.25;;;10.01;81.80
21276;BME280;36472;52.170;20.884;2022-11-15T11:32:49;100395.28;;;9.02;85.94
21276;BME280;36472;52.170;20.884;2022-11-15T11:35:29;100383.63;;;9.50;84.49
21276;BME280;36472;52.170;20.884;2022-11-15T11:38:18;100387.16;;;9.06;86.45
21276;BME280;36472;52.170;20.884;2022-11-15T11:41:02;100384.44;;;9.08;85.54
21276;BME280;36472;52.170;20.884;2022-11-15T11:43:53;100369.47;;;9.67;84.16
21276;BME280;36472;52.170;20.884;2022-11-15T11:46:47;100364.22;;;9.53;84.57
21276;BME280;36472;52.170;20.884;2022-11-15T11:49:23;100347.28;;;9.59;82.87
21276;BME280;36472;52.170;20.884;2022-11-15T11:52:00;100367.41;;;9.15;85.60
21276;BME280;36472;52.170;20.884;2022-11-15T11:54:39;100359.44;;;8.26;90.38
21276;BME280;36472;52.170;20.884;2022-11-15T11:57:19;100366.34;;;9.03;88.91
21276;BME280;36472;52.170;20.884;2022-11-15T11:59:59;100353.28;;;8.42;88.52
21276;BME280;36472;52.170;20.884;2022-11-15T12:02:43;100345.75;;;7.73;96.57
21276;BME280;36472;52.170;20.884;2022-11-15T12:05:22;100339.34;;;7.62;98.36
21276;BME280;36472;52.170;20.884;2022-11-15T12:08:13;100340.41;;;7.42;99.31
21276;BME280;36472;52.170;20.884;2022-11-15T12:10:48;100338.56;;;8.24;95.18
21276;BME280;36472;52.170;20.884;2022-11-15T12:13:25;100341.38;;;8.05;94.79
21276;BME280;36472;52.170;20.884;2022-11-15T12:16:14;100341.72;;;7.83;96.54
21276;BME280;36472;52.170;20.884;2022-11-15T12:18:50;100344.34;;;7.67;98.69
21276;BME280;36472;52.170;20.884;2022-11-15T12:21:32;100337.81;;;7.90;99.62
21276;BME280;36472;52.170;20.884;2022-11-15T12:24:11;100336.09;;;8.37;91.34
21276;BME280;36472;52.170;20.884;2022-11-15T12:26:50;100348.94;;;8.57;89.65
21276;BME280;36472;52.170;20.884;2022-11-15T12:29:28;100337.69;;;8.39;91.41
21276;BME280;36472;52.170;20.884;2022-11-15T12:32:00;100340.88;;;8.60;88.15
21276;BME280;36472;52.170;20.884;2022-11-15T12:34:49;100334.63;;;9.08;87.19
21276;BME280;36472;52.170;20.884;2022-11-15T12:37:48;100320.91;;;8.74;86.65
21276;BME280;36472;52.170;20.884;2022-11-15T12:40:34;100305.31;;;9.30;86.19
21276;BME280;36472;52.170;20.884;2022-11-15T12:43:39;100322.91;;;8.99;84.71
21276;BME280;36472;52.170;20.884;2022-11-15T12:46:58;100314.34;;;8.81;88.98
21276;BME280;36472;52.170;20.884;2022-11-15T12:49:45;100306.41;;;8.83;90.21
21276;BME280;36472;52.170;20.884;2022-11-15T12:52:16;100310.31;;;7.83;94.13
21276;BME280;36472;52.170;20.884;2022-11-15T12:55:00;100300.84;;;7.80;95.38
21276;BME280;36472;52.170;20.884;2022-11-15T12:57:41;100303.16;;;9.22;87.58
21276;BME280;36472;52.170;20.884;2022-11-15T13:00:44;100312.56;;;8.67;89.26
21276;BME280;36472;52.170;20.884;2022-11-15T13:07:58;100311.19;;;9.62;83.90
21276;BME280;36472;52.170;20.884;2022-11-15T13:10:32;100309.59;;;8.27;91.31
21276;BME280;36472;52.170;20.884;2022-11-15T13:13:06;100307.25;;;7.91;95.00
21276;BME280;36472;52.170;20.884;2022-11-15T13:15:55;100300.09;;;7.62;97.71
21276;BME280;36472;52.170;20.884;2022-11-15T13:18:39;100301.50;;;8.62;92.82
21276;BME280;36472;52.170;20.884;2022-11-15T13:21:23;100295.34;;;8.01;93.79
21276;BME280;36472;52.170;20.884;2022-11-15T13:24:16;100293.69;;;8.91;91.52
21276;BME280;36472;52.170;20.884;2022-11-15T13:26:45;100290.41;;;9.02;87.56
21276;BME280;36472;52.170;20.884;2022-11-15T13:29:17;100287.44;;;8.33;91.13
21276;BME280;36472;52.170;20.884;2022-11-15T13:31:48;100281.78;;;7.78;96.44
21276;BME280;36472;52.170;20.884;2022-11-15T13:34:27;100275.63;;;7.79;98.95
21276;BME280;36472;52.170;20.884;2022-11-15T13:37:30;100281.81;;;7.46;99.98
21276;BME280;36472;52.170;20.884;2022-11-15T13:40:22;100288.34;;;8.78;95.76
21276;BME280;36472;52.170;20.884;2022-11-15T13:42:52;100276.56;;;8.85;87.76
21276;BME280;36472;52.170;20.884;2022-11-15T13:45:21;100270.16;;;7.68;96.26
21276;BME280;36472;52.170;20.884;2022-11-15T13:47:56;100274.13;;;7.43;100.00
21276;BME280;36472;52.170;20.884;2022-11-15T13:50:32;100266.34;;;7.58;100.00
21276;BME280;36472;52.170;20.884;2022-11-15T13:53:04;100271.81;;;7.53;99.71
21276;BME280;36472;52.170;20.884;2022-11-15T13:55:35;100269.53;;;7.95;100.00
21276;BME280;36472;52.170;20.884;2022-11-15T13:58:05;100269.34;;;9.46;88.45
21276;BME280;36472;52.170;20.884;2022-11-15T14:00:37;100270.19;;;8.89;88.33
21276;BME280;36472;52.170;20.884;2022-11-15T14:03:17;100261.03;;;9.11;88.12
21276;BME280;36472;52.170;20.884;2022-11-15T14:06:05;100272.88;;;9.60;85.02
21276;BME280;36472;52.170;20.884;2022-11-15T14:08:35;100268.81;;;9.12;86.42
21276;BME280;36472;52.170;20.884;2022-11-15T14:11:15;100262.28;;;9.61;84.64
21276;BME280;36472;52.170;20.884;2022-11-15T14:14:11;100268.97;;;8.80;88.70
21276;BME280;36472;52.170;20.884;2022-11-15T14:16:44;100273.50;;;8.02;91.01
21276;BME280;36472;52.170;20.884;2022-11-15T14:19:35;100266.69;;;8.60;92.55
21276;BME280;36472;52.170;20.884;2022-11-15T14:26:38;100247.69;;;7.80;96.97
21276;BME280;36472;52.170;20.884;2022-11-15T14:29:24;100237.47;;;7.27;100.00
21276;BME280;36472;52.170;20.884;2022-11-15T14:31:53;100247.75;;;7.15;100.00
21276;BME280;36472;52.170;20.884;2022-11-15T14:34:23;100249.97;;;7.54;100.00
21276;BME280;36472;52.170;20.884;2022-11-15T14:36:51;100246.38;;;8.19;94.94
21276;BME280;36472;52.170;20.884;2022-11-15T14:39:20;100248.19;;;8.33;92.60
21276;BME280;36472;52.170;20.884;2022-11-15T14:41:52;100259.28;;;8.06;93.35
21276;BME280;36472;52.170;20.884;2022-11-15T14:48:55;100252.69;;;8.90;88.21
21276;BME280;36472;52.170;20.884;2022-11-15T14:51:24;100260.91;;;8.09;91.53
21276;BME280;36472;52.170;20.884;2022-11-15T14:53:53;100263.22;;;7.51;95.43
21276;BME280;36472;52.170;20.884;2022-11-15T14:56:22;100262.41;;;7.17;100.00
21276;BME280;36472;52.170;20.884;2022-11-15T14:58:52;100258.44;;;7.43;97.78
21276;BME280;36472;52.170;20.884;2022-11-15T15:01:25;100248.41;;;7.02;100.00
21276;BME280;36472;52.170;20.884;2022-11-15T15:08:26;100246.63;;;6.87;100.00
21276;BME280;36472;52.170;20.884;2022-11-15T15:10:55;100248.69;;;7.14;100.00
21276;BME280;36472;52.170;20.884;2022-11-15T15:13:24;100242.47;;;7.16;100.00
21276;BME280;36472;52.170;20.884;2022-11-15T15:15:54;100239.53;;;6.89;100.00
21276;BME280;36472;52.170;20.884;2022-11-15T15:18:23;100237.06;;;6.86;100.00
21276;BME280;36472;52.170;20.884;2022-11-15T15:20:56;100245.41;;;6.77;100.00
21276;BME280;36472;52.170;20.884;2022-11-15T15:23:27;100238.47;;;6.76;100.00
21276;BME280;36472;52.170;20.884;2022-11-15T15:25:58;100236.78;;;6.74;100.00